sensor_id;sensor_type;location;lat;lon;timestamp;temperature;humidity
1429;DHT22;708;51.442;7.016;2022-11-02T00:02:25;14.50;99.90
1429;DHT22;708;51.442;7.016;2022-11-02T00:04:52;14.60;99.90
1429;DHT22;708;51.442;7.016;2022-11-02T00:07:19;14.50;99.90
1429;DHT22;708;51.442;7.016;2022-11-02T00:09:46;14.60;99.90
1429;DHT22;708;51.442;7.016;2022-11-02T00:12:12;14.60;99.90
1429;DHT22;708;51.442;7.016;2022-11-02T00:14:39;14.60;99.90
1429;DHT22;708;51.442;7.016;2022-11-02T00:17:08;14.60;99.90
1429;DHT22;708;51.442;7.016;2022-11-02T00:19:35;14.60;99.90
1429;DHT22;708;51.442;7.016;2022-11-02T00:22:02;14.70;99.90
1429;DHT22;708;51.442;7.016;2022-11-02T00:24:31;14.70;99.90
1429;DHT22;708;51.442;7.016;2022-11-02T00:26:59;14.60;99.90
1429;DHT22;708;51.442;7.016;2022-11-02T00:29:26;14.60;99.90
1429;DHT22;708;51.442;7.016;2022-11-02T00:31:53;14.60;99.90
1429;DHT22;708;51.442;7.016;2022-11-02T00:34:22;14.60;99.90
1429;DHT22;708;51.442;7.016;2022-11-02T00:36:49;14.60;99.90
1429;DHT22;708;51.442;7.016;2022-11-02T00:39:15;14.50;99.90
1429;DHT22;708;51.442;7.016;2022-11-02T00:41:42;14.60;99.90
1429;DHT22;708;51.442;7.016;2022-11-02T00:44:09;14.60;99.90
1429;DHT22;708;51.442;7.016;2022-11-02T00:46:36;14.60;99.90
1429;DHT22;708;51.442;7.016;2022-11-02T00:49:03;14.60;99.90
1429;DHT22;708;51.442;7.016;2022-11-02T00:51:32;14.60;99.90
1429;DHT22;708;51.442;7.016;2022-11-02T00:53:59;14.60;99.90
1429;DHT22;708;51.442;7.016;2022-11-02T00:56:26;14.60;99.90
1429;DHT22;708;51.442;7.016;2022-11-02T00:58:53;14.60;99.90
1429;DHT22;708;51.442;7.016;2022-11-02T01:01:19;14.70;99.90
1429;DHT22;708;51.442;7.016;2022-11-02T01:03:46;14.70;99.90
1429;DHT22;708;51.442;7.016;2022-11-02T01:06:14;14.70;99.90
1429;DHT22;708;51.442;7.016;2022-11-02T01:08:43;14.70;99.90
1429;DHT22;708;51.442;7.016;2022-11-02T01:11:10;14.70;99.90
1429;DHT22;708;51.442;7.016;2022-11-02T01:13:37;14.70;99.90
1429;DHT22;708;51.442;7.016;2022-11-02T01:16:05;14.60;99.90
1429;DHT22;708;51.442;7.016;2022-11-02T01:18:32;14.60;99.90
1429;DHT22;708;51.442;7.016;2022-11-02T01:20:59;14.60;99.90
1429;DHT22;708;51.442;7.016;2022-11-02T01:23:26;14.60;99.90
1429;DHT22;708;51.442;7.016;2022-11-02T01:25:55;14.60;99.90
1429;DHT22;708;51.442;7.016;2022-11-02T01:28:22;14.60;99.90
1429;DHT22;708;51.442;7.016;2022-11-02T01:30:49;14.50;99.90
1429;DHT22;708;51.442;7.016;2022-11-02T01:33:16;14.30;99.90
1429;DHT22;708;51.442;7.016;2022-11-02T01:35:42;14.40;99.90
1429;DHT22;708;51.442;7.016;2022-11-02T01:38:09;14.20;99.90
1429;DHT22;708;51.442;7.016;2022-11-02T01:40:37;14.20;99.90
1429;DHT22;708;51.442;7.016;2022-11-02T01:43:23;14.10;99.90
1429;DHT22;708;51.442;7.016;2022-11-02T01:45:53;14.00;99.90
1429;DHT22;708;51.442;7.016;2022-11-02T01:48:27;14.00;1.00
1429;DHT22;708;51.442;7.016;2022-11-02T01:50:56;13.90;1.00
1429;DHT22;708;51.442;7.016;2022-11-02T01:53:24;13.90;1.00
1429;DHT22;708;51.442;7.016;2022-11-02T01:55:51;13.90;1.00
1429;DHT22;708;51.442;7.016;2022-11-02T01:58:18;13.90;1.00
1429;DHT22;708;51.442;7.016;2022-11-02T02:00:47;14.00;1.00
1429;DHT22;708;51.442;7.016;2022-11-02T02:03:15;14.00;1.00
1429;DHT22;708;51.442;7.016;2022-11-02T02:05:46;14.20;1.00
1429;DHT22;708;51.442;7.016;2022-11-02T02:08:16;14.30;99.90
1429;DHT22;708;51.442;7.016;2022-11-02T02:10:44;14.40;99.90
1429;DHT22;708;51.442;7.016;2022-11-02T02:13:11;14.50;99.90
1429;DHT22;708;51.442;7.016;2022-11-02T02:15:43;14.60;99.90
1429;DHT22;708;51.442;7.016;2022-11-02T02:18:21;14.50;99.90
1429;DHT22;708;51.442;7.016;2022-11-02T02:21:02;14.50;99.90
1429;DHT22;708;51.442;7.016;2022-11-02T02:23:52;14.40;99.90
1429;DHT22;708;51.442;7.016;2022-11-02T02:26:45;14.40;99.90
1429;DHT22;708;51.442;7.016;2022-11-02T02:29:18;14.30;99.90
1429;DHT22;708;51.442;7.016;2022-11-02T02:31:52;14.30;99.90
1429;DHT22;708;51.442;7.016;2022-11-02T02:34:23;14.30;99.90
1429;DHT22;708;51.442;7.016;2022-11-02T02:37:00;14.20;99.90
1429;DHT22;708;51.442;7.016;2022-11-02T02:39:31;14.20;99.90
1429;DHT22;708;51.442;7.016;2022-11-02T02:42:05;14.20;99.90
1429;DHT22;708;51.442;7.016;2022-11-02T02:44:35;14.20;99.90
1429;DHT22;708;51.442;7.016;2022-11-02T02:47:07;14.30;99.90
1429;DHT22;708;51.442;7.016;2022-11-02T02:49:39;14.30;99.90
1429;DHT22;708;51.442;7.016;2022-11-02T02:52:08;14.40;99.90
1429;DHT22;708;51.442;7.016;2022-11-02T02:54:38;14.40;99.90
1429;DHT22;708;51.442;7.016;2022-11-02T02:57:08;14.40;99.90
1429;DHT22;708;51.442;7.016;2022-11-02T02:59:39;14.40;99.90
1429;DHT22;708;51.442;7.016;2022-11-02T03:02:10;14.50;99.90
1429;DHT22;708;51.442;7.016;2022-11-02T03:04:38;14.50;99.90
1429;DHT22;708;51.442;7.016;2022-11-02T03:07:05;14.50;99.90
1429;DHT22;708;51.442;7.016;2022-11-02T03:09:35;14.60;99.90
1429;DHT22;708;51.442;7.016;2022-11-02T03:12:15;14.60;99.90
1429;DHT22;708;51.442;7.016;2022-11-02T03:14:58;14.60;99.90
1429;DHT22;708;51.442;7.016;2022-11-02T03:17:31;14.50;99.90
1429;DHT22;708;51.442;7.016;2022-11-02T03:20:03;14.50;99.90
1429;DHT22;708;51.442;7.016;2022-11-02T03:22:38;14.40;99.90
1429;DHT22;708;51.442;7.016;2022-11-02T03:25:16;14.40;99.90
1429;DHT22;708;51.442;7.016;2022-11-02T03:27:50;14.30;99.90
1429;DHT22;708;51.442;7.016;2022-11-02T03:30:22;14.30;99.90
1429;DHT22;708;51.442;7.016;2022-11-02T03:32:55;14.20;99.90
1429;DHT22;708;51.442;7.016;2022-11-02T03:35:29;14.30;99.90
1429;DHT22;708;51.442;7.016;2022-11-02T03:38:00;14.30;99.90
1429;DHT22;708;51.442;7.016;2022-11-02T03:40:32;14.20;99.90
1429;DHT22;708;51.442;7.016;2022-11-02T03:43:02;14.20;99.90
1429;DHT22;708;51.442;7.016;2022-11-02T03:45:35;14.20;99.90
1429;DHT22;708;51.442;7.016;2022-11-02T03:48:06;14.20;99.90
1429;DHT22;708;51.442;7.016;2022-11-02T03:50:37;14.20;99.90
1429;DHT22;708;51.442;7.016;2022-11-02T03:53:13;14.10;99.90
1429;DHT22;708;51.442;7.016;2022-11-02T03:55:48;14.10;99.90
1429;DHT22;708;51.442;7.016;2022-11-02T03:58:16;14.10;99.90
1429;DHT22;708;51.442;7.016;2022-11-02T04:00:48;14.00;99.90
1429;DHT22;708;51.442;7.016;2022-11-02T04:03:16;14.00;99.90
1429;DHT22;708;51.442;7.016;2022-11-02T04:05:44;14.00;99.90
1429;DHT22;708;51.442;7.016;2022-11-02T04:08:12;14.00;99.90
1429;DHT22;708;51.442;7.016;2022-11-02T04:10:47;14.00;99.90
1429;DHT22;708;51.442;7.016;2022-11-02T04:13:31;14.00;99.90
1429;DHT22;708;51.442;7.016;2022-11-02T04:16:17;14.00;99.90
1429;DHT22;708;51.442;7.016;2022-11-02T04:18:44;14.00;99.90
1429;DHT22;708;51.442;7.016;2022-11-02T04:21:29;13.90;99.90
1429;DHT22;708;51.442;7.016;2022-11-02T04:23:56;13.90;99.90
1429;DHT22;708;51.442;7.016;2022-11-02T04:26:41;13.90;99.90
1429;DHT22;708;51.442;7.016;2022-11-02T04:29:11;13.90;99.90
1429;DHT22;708;51.442;7.016;2022-11-02T04:31:39;13.80;99.90
1429;DHT22;708;51.442;7.016;2022-11-02T04:34:06;13.80;99.90
1429;DHT22;708;51.442;7.016;2022-11-02T04:36:32;13.80;99.90
1429;DHT22;708;51.442;7.016;2022-11-02T04:38:59;13.80;99.90
1429;DHT22;708;51.442;7.016;2022-11-02T04:41:25;13.80;99.90
1429;DHT22;708;51.442;7.016;2022-11-02T04:44:08;13.80;99.90
1429;DHT22;708;51.442;7.016;2022-11-02T04:46:36;13.80;99.90
1429;DHT22;708;51.442;7.016;2022-11-02T04:49:05;13.80;99.90
1429;DHT22;708;51.442;7.016;2022-11-02T04:51:33;13.80;99.90
1429;DHT22;708;51.442;7.016;2022-11-02T04:54:00;13.80;99.90
1429;DHT22;708;51.442;7.016;2022-11-02T04:56:28;13.80;99.90
1429;DHT22;708;51.442;7.016;2022-11-02T04:58:56;13.80;99.90
1429;DHT22;708;51.442;7.016;2022-11-02T05:01:24;13.80;99.90
1429;DHT22;708;51.442;7.016;2022-11-02T05:03:52;13.90;99.90
1429;DHT22;708;51.442;7.016;2022-11-02T05:06:22;13.90;99.90
1429;DHT22;708;51.442;7.016;2022-11-02T05:08:49;13.90;99.90
1429;DHT22;708;51.442;7.016;2022-11-02T05:11:16;14.00;99.90
1429;DHT22;708;51.442;7.016;2022-11-02T05:13:43;14.00;99.90
1429;DHT22;708;51.442;7.016;2022-11-02T05:16:12;14.00;99.90
1429;DHT22;708;51.442;7.016;2022-11-02T05:18:39;14.00;99.90
1429;DHT22;708;51.442;7.016;2022-11-02T05:21:10;13.90;99.90
1429;DHT22;708;51.442;7.016;2022-11-02T05:23:38;13.90;99.90
1429;DHT22;708;51.442;7.016;2022-11-02T05:26:06;14.00;99.90
1429;DHT22;708;51.442;7.016;2022-11-02T05:28:35;14.00;99.90
1429;DHT22;708;51.442;7.016;2022-11-02T05:31:02;14.10;99.90
1429;DHT22;708;51.442;7.016;2022-11-02T05:33:30;14.20;99.90
1429;DHT22;708;51.442;7.016;2022-11-02T05:35:58;14.20;99.90
1429;DHT22;708;51.442;7.016;2022-11-02T05:38:25;14.20;99.90
1429;DHT22;708;51.442;7.016;2022-11-02T05:40:55;14.10;99.90
1429;DHT22;708;51.442;7.016;2022-11-02T05:43:24;14.10;99.90
1429;DHT22;708;51.442;7.016;2022-11-02T05:45:55;14.10;99.90
1429;DHT22;708;51.442;7.016;2022-11-02T05:48:22;14.10;99.90
1429;DHT22;708;51.442;7.016;2022-11-02T05:50:54;14.10;99.90
1429;DHT22;708;51.442;7.016;2022-11-02T05:53:21;14.00;99.90
1429;DHT22;708;51.442;7.016;2022-11-02T05:55:48;14.00;99.90
1429;DHT22;708;51.442;7.016;2022-11-02T05:58:16;14.00;99.90
1429;DHT22;708;51.442;7.016;2022-11-02T06:00:43;14.00;99.90
1429;DHT22;708;51.442;7.016;2022-11-02T06:03:10;13.90;99.90
1429;DHT22;708;51.442;7.016;2022-11-02T06:05:37;14.00;99.90
1429;DHT22;708;51.442;7.016;2022-11-02T06:08:04;13.90;99.90
1429;DHT22;708;51.442;7.016;2022-11-02T06:10:31;13.90;99.90
1429;DHT22;708;51.442;7.016;2022-11-02T06:12:59;13.80;99.90
1429;DHT22;708;51.442;7.016;2022-11-02T06:15:29;13.90;99.90
1429;DHT22;708;51.442;7.016;2022-11-02T06:17:56;13.80;99.90
1429;DHT22;708;51.442;7.016;2022-11-02T06:20:23;13.80;99.90
1429;DHT22;708;51.442;7.016;2022-11-02T06:22:50;13.70;99.90
1429;DHT22;708;51.442;7.016;2022-11-02T06:25:17;13.60;99.90
1429;DHT22;708;51.442;7.016;2022-11-02T06:27:50;13.60;99.90
1429;DHT22;708;51.442;7.016;2022-11-02T06:30:18;13.60;99.90
1429;DHT22;708;51.442;7.016;2022-11-02T06:32:47;13.60;99.90
1429;DHT22;708;51.442;7.016;2022-11-02T06:35:15;13.60;99.90
1429;DHT22;708;51.442;7.016;2022-11-02T06:37:42;13.70;99.90
1429;DHT22;708;51.442;7.016;2022-11-02T06:40:10;13.70;99.90
1429;DHT22;708;51.442;7.016;2022-11-02T06:42:38;13.80;99.90
1429;DHT22;708;51.442;7.016;2022-11-02T06:45:06;13.90;99.90
1429;DHT22;708;51.442;7.016;2022-11-02T06:47:35;13.90;99.90
1429;DHT22;708;51.442;7.016;2022-11-02T06:50:04;14.00;99.90
1429;DHT22;708;51.442;7.016;2022-11-02T06:52:32;14.10;99.90
1429;DHT22;708;51.442;7.016;2022-11-02T06:54:59;14.10;99.90
1429;DHT22;708;51.442;7.016;2022-11-02T06:57:26;14.10;99.90
1429;DHT22;708;51.442;7.016;2022-11-02T06:59:53;14.00;99.90
1429;DHT22;708;51.442;7.016;2022-11-02T07:02:20;14.10;99.90
1429;DHT22;708;51.442;7.016;2022-11-02T07:05:06;14.20;99.90
1429;DHT22;708;51.442;7.016;2022-11-02T07:07:39;14.30;99.90
1429;DHT22;708;51.442;7.016;2022-11-02T07:13:21;14.30;99.90
1429;DHT22;708;51.442;7.016;2022-11-02T07:15:50;14.20;99.90
1429;DHT22;708;51.442;7.016;2022-11-02T07:18:18;14.30;99.90
1429;DHT22;708;51.442;7.016;2022-11-02T07:20:46;14.20;99.90
1429;DHT22;708;51.442;7.016;2022-11-02T07:23:13;14.30;99.90
1429;DHT22;708;51.442;7.016;2022-11-02T07:25:40;14.30;99.90
1429;DHT22;708;51.442;7.016;2022-11-02T07:28:07;14.40;99.90
1429;DHT22;708;51.442;7.016;2022-11-02T07:30:34;14.40;99.90
1429;DHT22;708;51.442;7.016;2022-11-02T07:33:01;14.40;99.90
1429;DHT22;708;51.442;7.016;2022-11-02T07:35:28;14.40;99.90
1429;DHT22;708;51.442;7.016;2022-11-02T07:37:58;14.40;99.90
1429;DHT22;708;51.442;7.016;2022-11-02T07:40:25;14.40;99.90
1429;DHT22;708;51.442;7.016;2022-11-02T07:42:52;14.40;99.90
1429;DHT22;708;51.442;7.016;2022-11-02T07:45:19;14.50;99.90
1429;DHT22;708;51.442;7.016;2022-11-02T07:47:47;14.60;99.90
1429;DHT22;708;51.442;7.016;2022-11-02T07:50:16;14.60;99.90
1429;DHT22;708;51.442;7.016;2022-11-02T07:52:47;14.70;99.90
1429;DHT22;708;51.442;7.016;2022-11-02T07:55:22;14.90;99.90
1429;DHT22;708;51.442;7.016;2022-11-02T07:57:52;15.10;99.90
1429;DHT22;708;51.442;7.016;2022-11-02T08:00:19;15.30;99.90
1429;DHT22;708;51.442;7.016;2022-11-02T08:02:46;15.50;99.90
1429;DHT22;708;51.442;7.016;2022-11-02T08:05:13;15.80;99.90
1429;DHT22;708;51.442;7.016;2022-11-02T08:07:40;16.60;99.90
1429;DHT22;708;51.442;7.016;2022-11-02T08:10:08;17.60;99.30
1429;DHT22;708;51.442;7.016;2022-11-02T08:12:36;18.40;85.90
1429;DHT22;708;51.442;7.016;2022-11-02T08:15:04;19.20;70.20
1429;DHT22;708;51.442;7.016;2022-11-02T08:17:31;19.70;59.20
1429;DHT22;708;51.442;7.016;2022-11-02T08:19:59;19.90;53.60
1429;DHT22;708;51.442;7.016;2022-11-02T08:22:26;20.20;49.50
1429;DHT22;708;51.442;7.016;2022-11-02T08:24:52;20.60;47.10
1429;DHT22;708;51.442;7.016;2022-11-02T08:27:19;20.90;44.50
1429;DHT22;708;51.442;7.016;2022-11-02T08:29:48;21.00;42.10
1429;DHT22;708;51.442;7.016;2022-11-02T08:32:15;20.80;41.20
1429;DHT22;708;51.442;7.016;2022-11-02T08:34:42;20.50;40.30
1429;DHT22;708;51.442;7.016;2022-11-02T08:37:09;20.10;40.90
1429;DHT22;708;51.442;7.016;2022-11-02T08:39:36;19.90;40.70
1429;DHT22;708;51.442;7.016;2022-11-02T08:42:03;19.30;41.80
1429;DHT22;708;51.442;7.016;2022-11-02T08:44:30;19.20;41.70
1429;DHT22;708;51.442;7.016;2022-11-02T08:47:03;19.70;43.40
1429;DHT22;708;51.442;7.016;2022-11-02T08:49:30;20.50;39.50
1429;DHT22;708;51.442;7.016;2022-11-02T08:51:57;21.20;37.20
1429;DHT22;708;51.442;7.016;2022-11-02T08:54:24;21.40;35.40
1429;DHT22;708;51.442;7.016;2022-11-02T08:56:52;21.40;34.20
1429;DHT22;708;51.442;7.016;2022-11-02T08:59:18;21.40;34.00
1429;DHT22;708;51.442;7.016;2022-11-02T09:01:45;21.70;32.10
1429;DHT22;708;51.442;7.016;2022-11-02T09:04:17;21.70;31.60
1429;DHT22;708;51.442;7.016;2022-11-02T09:06:45;21.40;31.30
1429;DHT22;708;51.442;7.016;2022-11-02T09:09:18;20.80;32.30
1429;DHT22;708;51.442;7.016;2022-11-02T09:12:11;20.60;31.20
1429;DHT22;708;51.442;7.016;2022-11-02T09:14:45;20.20;32.00
1429;DHT22;708;51.442;7.016;2022-11-02T09:17:13;20.10;33.30
1429;DHT22;708;51.442;7.016;2022-11-02T09:19:45;20.00;32.30
1429;DHT22;708;51.442;7.016;2022-11-02T09:22:34;19.70;32.50
1429;DHT22;708;51.442;7.016;2022-11-02T09:25:06;19.70;32.80
1429;DHT22;708;51.442;7.016;2022-11-02T09:27:34;20.00;33.00
1429;DHT22;708;51.442;7.016;2022-11-02T09:30:01;20.20;31.60
1429;DHT22;708;51.442;7.016;2022-11-02T09:32:30;20.30;30.90
1429;DHT22;708;51.442;7.016;2022-11-02T09:34:59;20.50;30.90
1429;DHT22;708;51.442;7.016;2022-11-02T09:37:26;20.90;30.10
1429;DHT22;708;51.442;7.016;2022-11-02T09:39:54;21.20;29.10
1429;DHT22;708;51.442;7.016;2022-11-02T09:42:24;21.00;29.00
1429;DHT22;708;51.442;7.016;2022-11-02T09:44:59;20.40;29.00
1429;DHT22;708;51.442;7.016;2022-11-02T09:47:28;20.20;29.70
1429;DHT22;708;51.442;7.016;2022-11-02T09:50:01;20.30;29.40
1429;DHT22;708;51.442;7.016;2022-11-02T09:52:33;20.30;29.50
1429;DHT22;708;51.442;7.016;2022-11-02T09:55:04;20.00;29.10
1429;DHT22;708;51.442;7.016;2022-11-02T09:57:33;19.70;29.70
1429;DHT22;708;51.442;7.016;2022-11-02T10:00:01;19.30;30.60
1429;DHT22;708;51.442;7.016;2022-11-02T10:02:37;19.10;31.50
1429;DHT22;708;51.442;7.016;2022-11-02T10:05:23;18.90;31.40
1429;DHT22;708;51.442;7.016;2022-11-02T10:08:05;18.70;32.40
1429;DHT22;708;51.442;7.016;2022-11-02T10:10:37;18.50;33.20
1429;DHT22;708;51.442;7.016;2022-11-02T10:13:14;18.30;34.50
1429;DHT22;708;51.442;7.016;2022-11-02T10:15:51;18.20;34.60
1429;DHT22;708;51.442;7.016;2022-11-02T10:18:22;18.10;37.50
1429;DHT22;708;51.442;7.016;2022-11-02T10:20:54;17.90;36.80
1429;DHT22;708;51.442;7.016;2022-11-02T10:23:29;17.90;37.70
1429;DHT22;708;51.442;7.016;2022-11-02T10:26:02;17.70;36.80
1429;DHT22;708;51.442;7.016;2022-11-02T10:28:33;17.50;36.40
1429;DHT22;708;51.442;7.016;2022-11-02T10:31:01;17.30;37.90
1429;DHT22;708;51.442;7.016;2022-11-02T10:33:29;17.10;39.00
1429;DHT22;708;51.442;7.016;2022-11-02T10:36:11;17.10;38.60
1429;DHT22;708;51.442;7.016;2022-11-02T10:38:49;17.20;39.20
1429;DHT22;708;51.442;7.016;2022-11-02T10:41:37;17.20;38.90
1429;DHT22;708;51.442;7.016;2022-11-02T10:44:16;17.20;38.30
1429;DHT22;708;51.442;7.016;2022-11-02T10:47:05;17.20;37.30
1429;DHT22;708;51.442;7.016;2022-11-02T10:49:56;17.00;36.50
1429;DHT22;708;51.442;7.016;2022-11-02T10:52:33;17.00;37.60
1429;DHT22;708;51.442;7.016;2022-11-02T10:55:01;17.00;37.00
1429;DHT22;708;51.442;7.016;2022-11-02T10:57:29;16.90;37.50
1429;DHT22;708;51.442;7.016;2022-11-02T11:00:31;16.90;38.00
1429;DHT22;708;51.442;7.016;2022-11-02T11:03:03;16.80;35.10
1429;DHT22;708;51.442;7.016;2022-11-02T11:05:31;16.70;35.00
1429;DHT22;708;51.442;7.016;2022-11-02T11:08:04;16.80;34.60
1429;DHT22;708;51.442;7.016;2022-11-02T11:10:37;16.80;34.30
1429;DHT22;708;51.442;7.016;2022-11-02T11:13:04;16.80;34.50
1429;DHT22;708;51.442;7.016;2022-11-02T11:15:33;16.80;34.50
1429;DHT22;708;51.442;7.016;2022-11-02T11:18:09;16.90;33.70
1429;DHT22;708;51.442;7.016;2022-11-02T11:20:38;17.10;33.40
1429;DHT22;708;51.442;7.016;2022-11-02T11:23:19;17.10;32.00
1429;DHT22;708;51.442;7.016;2022-11-02T11:25:57;17.10;32.50
1429;DHT22;708;51.442;7.016;2022-11-02T11:28:27;17.10;31.90
1429;DHT22;708;51.442;7.016;2022-11-02T11:31:11;17.20;31.70
1429;DHT22;708;51.442;7.016;2022-11-02T11:33:47;17.20;32.30
1429;DHT22;708;51.442;7.016;2022-11-02T11:36:24;17.20;31.40
1429;DHT22;708;51.442;7.016;2022-11-02T11:38:54;17.30;31.70
1429;DHT22;708;51.442;7.016;2022-11-02T11:41:23;17.30;30.80
1429;DHT22;708;51.442;7.016;2022-11-02T11:43:51;17.20;29.90
1429;DHT22;708;51.442;7.016;2022-11-02T11:46:18;17.20;30.00
1429;DHT22;708;51.442;7.016;2022-11-02T11:48:48;17.20;30.30
1429;DHT22;708;51.442;7.016;2022-11-02T11:51:34;17.30;41.50
1429;DHT22;708;51.442;7.016;2022-11-02T11:54:22;17.40;31.70
1429;DHT22;708;51.442;7.016;2022-11-02T11:56:51;17.60;30.00
1429;DHT22;708;51.442;7.016;2022-11-02T11:59:23;17.70;29.90
1429;DHT22;708;51.442;7.016;2022-11-02T12:01:53;17.70;29.80
1429;DHT22;708;51.442;7.016;2022-11-02T12:04:32;17.80;29.70
1429;DHT22;708;51.442;7.016;2022-11-02T12:07:27;17.80;28.60
1429;DHT22;708;51.442;7.016;2022-11-02T12:10:05;17.80;27.70
1429;DHT22;708;51.442;7.016;2022-11-02T12:12:48;17.80;28.00
1429;DHT22;708;51.442;7.016;2022-11-02T12:15:27;17.70;28.40
1429;DHT22;708;51.442;7.016;2022-11-02T12:18:06;17.80;27.90
1429;DHT22;708;51.442;7.016;2022-11-02T12:21:14;17.70;27.60
1429;DHT22;708;51.442;7.016;2022-11-02T12:24:03;17.60;27.60
1429;DHT22;708;51.442;7.016;2022-11-02T12:26:47;17.60;28.20
1429;DHT22;708;51.442;7.016;2022-11-02T12:29:39;17.60;28.50
1429;DHT22;708;51.442;7.016;2022-11-02T12:32:23;17.50;29.10
1429;DHT22;708;51.442;7.016;2022-11-02T12:35:08;17.50;28.80
1429;DHT22;708;51.442;7.016;2022-11-02T12:37:52;17.60;28.80
1429;DHT22;708;51.442;7.016;2022-11-02T12:40:26;17.70;28.40
1429;DHT22;708;51.442;7.016;2022-11-02T12:43:02;17.70;28.80
1429;DHT22;708;51.442;7.016;2022-11-02T12:45:40;17.80;28.90
1429;DHT22;708;51.442;7.016;2022-11-02T12:48:14;17.80;28.20
1429;DHT22;708;51.442;7.016;2022-11-02T12:50:58;17.90;29.00
1429;DHT22;708;51.442;7.016;2022-11-02T12:53:36;17.90;28.60
1429;DHT22;708;51.442;7.016;2022-11-02T12:56:07;17.90;32.10
1429;DHT22;708;51.442;7.016;2022-11-02T12:58:39;17.80;28.70
1429;DHT22;708;51.442;7.016;2022-11-02T13:01:10;17.70;29.40
1429;DHT22;708;51.442;7.016;2022-11-02T13:03:45;17.60;29.50
1429;DHT22;708;51.442;7.016;2022-11-02T13:06:18;17.50;29.50
1429;DHT22;708;51.442;7.016;2022-11-02T13:08:49;17.30;29.40
1429;DHT22;708;51.442;7.016;2022-11-02T13:11:22;17.30;29.50
1429;DHT22;708;51.442;7.016;2022-11-02T13:13:53;17.30;29.50
1429;DHT22;708;51.442;7.016;2022-11-02T13:16:29;17.30;29.40
1429;DHT22;708;51.442;7.016;2022-11-02T13:18:59;17.30;28.70
1429;DHT22;708;51.442;7.016;2022-11-02T13:21:32;17.30;29.60
1429;DHT22;708;51.442;7.016;2022-11-02T13:24:00;17.30;29.30
1429;DHT22;708;51.442;7.016;2022-11-02T13:26:28;17.20;29.30
1429;DHT22;708;51.442;7.016;2022-11-02T13:29:03;17.20;28.50
1429;DHT22;708;51.442;7.016;2022-11-02T13:31:34;17.10;29.40
1429;DHT22;708;51.442;7.016;2022-11-02T13:34:05;17.10;29.60
1429;DHT22;708;51.442;7.016;2022-11-02T13:36:36;17.00;29.60
1429;DHT22;708;51.442;7.016;2022-11-02T13:39:11;16.90;29.70
1429;DHT22;708;51.442;7.016;2022-11-02T13:42:07;16.90;31.00
1429;DHT22;708;51.442;7.016;2022-11-02T13:48:10;16.80;32.30
1429;DHT22;708;51.442;7.016;2022-11-02T13:50:45;16.70;32.90
1429;DHT22;708;51.442;7.016;2022-11-02T13:53:15;16.70;33.30
1429;DHT22;708;51.442;7.016;2022-11-02T13:55:49;16.60;33.80
1429;DHT22;708;51.442;7.016;2022-11-02T13:58:22;16.60;34.10
1429;DHT22;708;51.442;7.016;2022-11-02T14:00:52;16.60;35.20
1429;DHT22;708;51.442;7.016;2022-11-02T14:03:27;16.50;37.90
1429;DHT22;708;51.442;7.016;2022-11-02T14:05:57;16.50;36.60
1429;DHT22;708;51.442;7.016;2022-11-02T14:08:31;16.50;38.40
1429;DHT22;708;51.442;7.016;2022-11-02T14:11:34;16.40;38.20
1429;DHT22;708;51.442;7.016;2022-11-02T14:14:19;16.40;38.50
1429;DHT22;708;51.442;7.016;2022-11-02T14:17:11;16.40;39.80
1429;DHT22;708;51.442;7.016;2022-11-02T14:19:52;16.30;39.80
1429;DHT22;708;51.442;7.016;2022-11-02T14:22:19;16.20;40.90
1429;DHT22;708;51.442;7.016;2022-11-02T14:27:53;16.10;43.10
1429;DHT22;708;51.442;7.016;2022-11-02T14:30:40;16.10;44.30
1429;DHT22;708;51.442;7.016;2022-11-02T14:33:25;16.20;45.80
1429;DHT22;708;51.442;7.016;2022-11-02T14:35:58;16.20;45.40
1429;DHT22;708;51.442;7.016;2022-11-02T14:38:39;16.20;44.90
1429;DHT22;708;51.442;7.016;2022-11-02T14:41:19;16.20;45.80
1429;DHT22;708;51.442;7.016;2022-11-02T14:44:03;16.10;46.30
1429;DHT22;708;51.442;7.016;2022-11-02T14:46:41;16.00;46.80
1429;DHT22;708;51.442;7.016;2022-11-02T14:49:18;16.00;48.20
1429;DHT22;708;51.442;7.016;2022-11-02T14:51:58;16.00;47.20
1429;DHT22;708;51.442;7.016;2022-11-02T14:54:27;16.00;47.10
1429;DHT22;708;51.442;7.016;2022-11-02T14:56:59;15.90;46.80
1429;DHT22;708;51.442;7.016;2022-11-02T14:59:29;15.90;47.80
1429;DHT22;708;51.442;7.016;2022-11-02T15:01:58;15.80;47.60
1429;DHT22;708;51.442;7.016;2022-11-02T15:04:29;15.90;47.70
1429;DHT22;708;51.442;7.016;2022-11-02T15:06:58;15.80;47.20
1429;DHT22;708;51.442;7.016;2022-11-02T15:09:51;15.70;48.50
1429;DHT22;708;51.442;7.016;2022-11-02T15:12:31;15.80;49.60
1429;DHT22;708;51.442;7.016;2022-11-02T15:18:23;15.60;49.50
1429;DHT22;708;51.442;7.016;2022-11-02T15:21:24;15.60;50.60
1429;DHT22;708;51.442;7.016;2022-11-02T15:24:17;15.50;50.60
1429;DHT22;708;51.442;7.016;2022-11-02T15:26:48;15.50;52.40
1429;DHT22;708;51.442;7.016;2022-11-02T15:29:29;15.40;53.70
1429;DHT22;708;51.442;7.016;2022-11-02T15:31:57;15.30;54.50
1429;DHT22;708;51.442;7.016;2022-11-02T15:34:32;15.30;55.90
1429;DHT22;708;51.442;7.016;2022-11-02T15:37:01;15.20;57.00
1429;DHT22;708;51.442;7.016;2022-11-02T15:39:29;15.10;59.60
1429;DHT22;708;51.442;7.016;2022-11-02T15:42:02;15.10;62.60
1429;DHT22;708;51.442;7.016;2022-11-02T15:44:56;15.00;64.80
1429;DHT22;708;51.442;7.016;2022-11-02T15:47:30;15.00;68.80
1429;DHT22;708;51.442;7.016;2022-11-02T15:50:13;14.90;70.10
1429;DHT22;708;51.442;7.016;2022-11-02T15:52:52;14.80;75.00
1429;DHT22;708;51.442;7.016;2022-11-02T15:55:23;14.70;79.00
1429;DHT22;708;51.442;7.016;2022-11-02T15:57:59;14.70;80.50
1429;DHT22;708;51.442;7.016;2022-11-02T16:00:28;14.60;99.90
1429;DHT22;708;51.442;7.016;2022-11-02T16:02:59;14.60;84.40
1429;DHT22;708;51.442;7.016;2022-11-02T16:05:31;14.50;89.00
1429;DHT22;708;51.442;7.016;2022-11-02T16:07:58;14.40;87.50
1429;DHT22;708;51.442;7.016;2022-11-02T16:10:27;14.40;90.20
1429;DHT22;708;51.442;7.016;2022-11-02T16:12:59;14.40;90.90
1429;DHT22;708;51.442;7.016;2022-11-02T16:15:27;14.30;91.90
1429;DHT22;708;51.442;7.016;2022-11-02T16:17:54;14.30;92.30
1429;DHT22;708;51.442;7.016;2022-11-02T16:20:25;14.20;94.00
1429;DHT22;708;51.442;7.016;2022-11-02T16:22:55;14.10;97.30
1429;DHT22;708;51.442;7.016;2022-11-02T16:25:32;14.10;95.80
1429;DHT22;708;51.442;7.016;2022-11-02T16:28:09;14.00;97.80
1429;DHT22;708;51.442;7.016;2022-11-02T16:30:39;13.90;98.40
1429;DHT22;708;51.442;7.016;2022-11-02T16:33:07;13.90;99.90
1429;DHT22;708;51.442;7.016;2022-11-02T16:35:35;13.80;99.90
1429;DHT22;708;51.442;7.016;2022-11-02T16:38:03;13.70;99.90
1429;DHT22;708;51.442;7.016;2022-11-02T16:40:29;13.70;99.90
1429;DHT22;708;51.442;7.016;2022-11-02T16:42:56;13.70;99.90
1429;DHT22;708;51.442;7.016;2022-11-02T16:45:34;13.70;99.90
1429;DHT22;708;51.442;7.016;2022-11-02T16:48:15;13.60;99.90
1429;DHT22;708;51.442;7.016;2022-11-02T16:50:59;13.50;99.90
1429;DHT22;708;51.442;7.016;2022-11-02T16:53:27;13.50;99.90
1429;DHT22;708;51.442;7.016;2022-11-02T16:55:56;13.50;99.90
1429;DHT22;708;51.442;7.016;2022-11-02T16:58:26;13.40;99.90
1429;DHT22;708;51.442;7.016;2022-11-02T17:00:55;13.40;99.90
1429;DHT22;708;51.442;7.016;2022-11-02T17:03:28;13.40;99.90